sensor_id;sensor_type;location;lat;lon;timestamp;pressure;altitude;pressure_sealevel;temperature;humidity
30724;BME280;17473;52.286;20.930;2023-02-13T00:00:45;101936.97;;;6.02;90.52
30724;BME280;17473;52.286;20.930;2023-02-13T00:03:13;101941.41;;;6.03;90.95
30724;BME280;17473;52.286;20.930;2023-02-13T00:05:40;101948.16;;;6.11;90.63
30724;BME280;17473;52.286;20.930;2023-02-13T00:08:07;101947.47;;;6.14;90.46
30724;BME280;17473;52.286;20.930;2023-02-13T00:10:35;101949.53;;;6.06;90.76
30724;BME280;17473;52.286;20.930;2023-02-13T00:13:02;101939.75;;;6.16;90.73
30724;BME280;17473;52.286;20.930;2023-02-13T00:15:29;101936.88;;;6.13;90.64
30724;BME280;17473;52.286;20.930;2023-02-13T00:17:56;101931.75;;;6.14;90.91
30724;BME280;17473;52.286;20.930;2023-02-13T00:20:23;101925.94;;;6.18;90.43
30724;BME280;17473;52.286;20.930;2023-02-13T00:22:50;101929.81;;;6.11;90.94
30724;BME280;17473;52.286;20.930;2023-02-13T00:25:17;101921.47;;;6.05;91.12
30724;BME280;17473;52.286;20.930;2023-02-13T00:27:44;101925.69;;;6.15;90.83
30724;BME280;17473;52.286;20.930;2023-02-13T00:30:12;101913.16;;;5.99;91.19
30724;BME280;17473;52.286;20.930;2023-02-13T00:32:39;101923.56;;;6.09;90.81
30724;BME280;17473;52.286;20.930;2023-02-13T00:35:07;101931.63;;;6.13;90.85
30724;BME280;17473;52.286;20.930;2023-02-13T00:37:34;101921.38;;;6.16;90.72
30724;BME280;17473;52.286;20.930;2023-02-13T00:40:01;101919.81;;;6.18;90.38
30724;BME280;17473;52.286;20.930;2023-02-13T00:42:28;101925.06;;;6.18;90.49
30724;BME280;17473;52.286;20.930;2023-02-13T00:44:55;101928.22;;;6.14;90.47
30724;BME280;17473;52.286;20.930;2023-02-13T00:47:22;101929.47;;;6.19;90.37
30724;BME280;17473;52.286;20.930;2023-02-13T00:49:49;101930.16;;;6.16;90.55
30724;BME280;17473;52.286;20.930;2023-02-13T00:52:16;101931.63;;;6.13;90.75
30724;BME280;17473;52.286;20.930;2023-02-13T00:54:43;101939.06;;;6.18;90.54
30724;BME280;17473;52.286;20.930;2023-02-13T00:57:10;101931.09;;;6.17;90.47
30724;BME280;17473;52.286;20.930;2023-02-13T00:59:37;101927.19;;;6.11;90.56
30724;BME280;17473;52.286;20.930;2023-02-13T01:02:04;101921.84;;;6.10;90.26
30724;BME280;17473;52.286;20.930;2023-02-13T01:04:31;101944.53;;;6.09;90.86
30724;BME280;17473;52.286;20.930;2023-02-13T01:06:58;101937.31;;;6.07;91.23
30724;BME280;17473;52.286;20.930;2023-02-13T01:09:25;101933.03;;;6.19;90.83
30724;BME280;17473;52.286;20.930;2023-02-13T01:11:52;101928.56;;;6.06;91.17
30724;BME280;17473;52.286;20.930;2023-02-13T01:14:19;101931.28;;;6.08;91.04
30724;BME280;17473;52.286;20.930;2023-02-13T01:16:47;101925.59;;;6.14;90.85
30724;BME280;17473;52.286;20.930;2023-02-13T01:19:14;101917.97;;;6.17;90.67
30724;BME280;17473;52.286;20.930;2023-02-13T01:21:42;101920.25;;;6.12;90.95
30724;BME280;17473;52.286;20.930;2023-02-13T01:24:10;101928.22;;;6.14;90.97
30724;BME280;17473;52.286;20.930;2023-02-13T01:26:37;101917.97;;;6.17;90.65
30724;BME280;17473;52.286;20.930;2023-02-13T01:29:05;101916.47;;;6.08;91.21
30724;BME280;17473;52.286;20.930;2023-02-13T01:31:32;101914.84;;;6.10;91.35
30724;BME280;17473;52.286;20.930;2023-02-13T01:34:00;101910.31;;;6.20;90.96
30724;BME280;17473;52.286;20.930;2023-02-13T01:36:27;101913.50;;;6.04;91.39
30724;BME280;17473;52.286;20.930;2023-02-13T01:38:56;101924.56;;;6.11;90.99
30724;BME280;17473;52.286;20.930;2023-02-13T01:41:25;101918.53;;;6.24;90.39
30724;BME280;17473;52.286;20.930;2023-02-13T01:43:59;101920.00;;;6.09;91.24
30724;BME280;17473;52.286;20.930;2023-02-13T01:53:26;101923.00;;;6.25;90.46
30724;BME280;17473;52.286;20.930;2023-02-13T01:56:29;101920.16;;;6.22;90.47
30724;BME280;17473;52.286;20.930;2023-02-13T01:59:00;101921.16;;;6.24;90.31
30724;BME280;17473;52.286;20.930;2023-02-13T02:01:31;101927.31;;;6.13;90.71
30724;BME280;17473;52.286;20.930;2023-02-13T02:04:23;101925.50;;;6.12;90.64
30724;BME280;17473;52.286;20.930;2023-02-13T02:07:03;101925.69;;;6.15;90.83
30724;BME280;17473;52.286;20.930;2023-02-13T02:09:36;101920.50;;;6.27;90.28
30724;BME280;17473;52.286;20.930;2023-02-13T02:14:44;101927.78;;;6.31;89.93
30724;BME280;17473;52.286;20.930;2023-02-13T02:17:11;101926.75;;;6.41;89.53
30724;BME280;17473;52.286;20.930;2023-02-13T02:32:56;101920.97;;;6.45;89.09
30724;BME280;17473;52.286;20.930;2023-02-13T02:41:53;101915.72;;;6.45;89.17
30724;BME280;17473;52.286;20.930;2023-02-13T02:44:59;101917.19;;;6.41;89.25
30724;BME280;17473;52.286;20.930;2023-02-13T02:47:51;101924.97;;;6.52;88.69
30724;BME280;17473;52.286;20.930;2023-02-13T02:50:55;101918.56;;;6.48;88.72
30724;BME280;17473;52.286;20.930;2023-02-13T02:56:29;101929.72;;;6.46;88.75
30724;BME280;17473;52.286;20.930;2023-02-13T02:59:09;101935.22;;;6.37;89.04
30724;BME280;17473;52.286;20.930;2023-02-13T03:01:56;101931.22;;;6.30;89.98
30724;BME280;17473;52.286;20.930;2023-02-13T03:04:46;101931.69;;;6.36;89.88
30724;BME280;17473;52.286;20.930;2023-02-13T03:07:33;101935.91;;;6.46;89.44
30724;BME280;17473;52.286;20.930;2023-02-13T03:10:12;101936.59;;;6.44;89.26
30724;BME280;17473;52.286;20.930;2023-02-13T03:13:14;101931.00;;;6.51;88.98
30724;BME280;17473;52.286;20.930;2023-02-13T03:15:53;101936.59;;;6.44;89.35
30724;BME280;17473;52.286;20.930;2023-02-13T03:18:46;101939.78;;;6.51;89.09
30724;BME280;17473;52.286;20.930;2023-02-13T03:25:10;101927.78;;;6.43;89.33
30724;BME280;17473;52.286;20.930;2023-02-13T03:27:57;101916.75;;;6.47;88.63
30724;BME280;17473;52.286;20.930;2023-02-13T03:42:39;101921.75;;;6.44;89.19
30724;BME280;17473;52.286;20.930;2023-02-13T03:45:13;101918.09;;;6.42;89.35
30724;BME280;17473;52.286;20.930;2023-02-13T03:48:04;101925.66;;;6.49;89.12
30724;BME280;17473;52.286;20.930;2023-02-13T03:50:53;101924.81;;;6.50;88.88
30724;BME280;17473;52.286;20.930;2023-02-13T03:53:22;101925.41;;;6.46;89.25
30724;BME280;17473;52.286;20.930;2023-02-13T03:55:50;101915.50;;;6.54;88.71
30724;BME280;17473;52.286;20.930;2023-02-13T03:58:45;101923.13;;;6.51;88.89
30724;BME280;17473;52.286;20.930;2023-02-13T04:01:34;101912.41;;;6.48;88.77
30724;BME280;17473;52.286;20.930;2023-02-13T04:04:08;101920.41;;;6.49;89.17
30724;BME280;17473;52.286;20.930;2023-02-13T04:07:09;101900.88;;;6.46;89.09
30724;BME280;17473;52.286;20.930;2023-02-13T04:09:40;101908.53;;;6.42;89.14
30724;BME280;17473;52.286;20.930;2023-02-13T04:12:17;101916.84;;;6.49;89.32
30724;BME280;17473;52.286;20.930;2023-02-13T04:14:57;101907.94;;;6.47;89.03
30724;BME280;17473;52.286;20.930;2023-02-13T04:17:33;101914.56;;;6.41;89.53
30724;BME280;17473;52.286;20.930;2023-02-13T04:20:02;101911.59;;;6.37;89.65
30724;BME280;17473;52.286;20.930;2023-02-13T04:22:29;101914.47;;;6.40;89.90
30724;BME280;17473;52.286;20.930;2023-02-13T04:24:57;101916.59;;;6.46;89.68
30724;BME280;17473;52.286;20.930;2023-02-13T04:27:26;101918.09;;;6.42;89.75
30724;BME280;17473;52.286;20.930;2023-02-13T04:29:54;101921.31;;;6.50;89.62
30724;BME280;17473;52.286;20.930;2023-02-13T04:32:21;101915.59;;;6.44;89.50
30724;BME280;17473;52.286;20.930;2023-02-13T04:34:48;101922.53;;;6.43;89.86
30724;BME280;17473;52.286;20.930;2023-02-13T04:37:15;101922.53;;;6.43;89.78
30724;BME280;17473;52.286;20.930;2023-02-13T04:39:42;101926.66;;;6.51;89.33
30724;BME280;17473;52.286;20.930;2023-02-13T04:42:09;101931.69;;;6.48;89.59
30724;BME280;17473;52.286;20.930;2023-02-13T04:44:36;101915.81;;;6.47;89.24
30724;BME280;17473;52.286;20.930;2023-02-13T04:47:03;101927.78;;;6.55;89.37
30724;BME280;17473;52.286;20.930;2023-02-13T04:49:30;101920.16;;;6.46;89.76
30724;BME280;17473;52.286;20.930;2023-02-13T04:51:57;101919.91;;;6.43;89.87
30724;BME280;17473;52.286;20.930;2023-02-13T04:54:24;101921.75;;;6.44;89.83
30724;BME280;17473;52.286;20.930;2023-02-13T04:56:51;101919.72;;;6.52;89.29
30724;BME280;17473;52.286;20.930;2023-02-13T04:59:18;101916.84;;;6.49;89.49
30724;BME280;17473;52.286;20.930;2023-02-13T05:01:45;101911.50;;;6.35;90.23
30724;BME280;17473;52.286;20.930;2023-02-13T05:04:12;101918.56;;;6.36;90.55
30724;BME280;17473;52.286;20.930;2023-02-13T05:06:42;101918.69;;;6.50;89.78
30724;BME280;17473;52.286;20.930;2023-02-13T05:09:09;101919.22;;;6.46;89.87
30724;BME280;17473;52.286;20.930;2023-02-13T05:11:36;101917.78;;;6.49;89.70
30724;BME280;17473;52.286;20.930;2023-02-13T05:14:03;101916.06;;;6.50;89.88
30724;BME280;17473;52.286;20.930;2023-02-13T05:16:31;101908.28;;;6.51;89.41
30724;BME280;17473;52.286;20.930;2023-02-13T05:18:58;101915.72;;;6.57;89.33
30724;BME280;17473;52.286;20.930;2023-02-13T05:21:25;101911.84;;;6.52;89.33
30724;BME280;17473;52.286;20.930;2023-02-13T05:24:11;101918.56;;;6.60;88.93
30724;BME280;17473;52.286;20.930;2023-02-13T05:26:38;101914.34;;;6.62;88.83
30724;BME280;17473;52.286;20.930;2023-02-13T05:29:05;101925.16;;;6.55;89.21
30724;BME280;17473;52.286;20.930;2023-02-13T05:31:54;101916.59;;;6.46;89.39
30724;BME280;17473;52.286;20.930;2023-02-13T05:34:24;101925.31;;;6.45;89.92
30724;BME280;17473;52.286;20.930;2023-02-13T05:36:51;101916.53;;;6.68;89.16
30724;BME280;17473;52.286;20.930;2023-02-13T05:39:19;101922.44;;;6.53;89.23
30724;BME280;17473;52.286;20.930;2023-02-13T05:41:47;101927.34;;;6.49;89.50
30724;BME280;17473;52.286;20.930;2023-02-13T05:44:16;101918.78;;;6.51;89.27
30724;BME280;17473;52.286;20.930;2023-02-13T05:46:43;101919.72;;;6.52;89.21
30724;BME280;17473;52.286;20.930;2023-02-13T05:49:13;101926.00;;;6.66;88.82
30724;BME280;17473;52.286;20.930;2023-02-13T05:51:41;101932.94;;;6.65;88.68
30724;BME280;17473;52.286;20.930;2023-02-13T05:54:08;101933.38;;;6.48;89.28
30724;BME280;17473;52.286;20.930;2023-02-13T05:56:35;101942.66;;;6.66;88.73
30724;BME280;17473;52.286;20.930;2023-02-13T05:59:03;101943.44;;;6.65;88.70
30724;BME280;17473;52.286;20.930;2023-02-13T06:01:30;101937.84;;;6.72;88.00
30724;BME280;17473;52.286;20.930;2023-02-13T06:03:57;101936.94;;;6.60;88.67
30724;BME280;17473;52.286;20.930;2023-02-13T06:06:26;101939.13;;;6.54;88.82
30724;BME280;17473;52.286;20.930;2023-02-13T06:08:53;101938.88;;;6.63;88.69
30724;BME280;17473;52.286;20.930;2023-02-13T06:11:21;101944.47;;;6.67;88.28
30724;BME280;17473;52.286;20.930;2023-02-13T06:13:48;101943.78;;;6.70;88.26
30724;BME280;17473;52.286;20.930;2023-02-13T06:16:15;101947.34;;;6.58;88.83
30724;BME280;17473;52.286;20.930;2023-02-13T06:18:42;101936.69;;;6.69;88.34
30724;BME280;17473;52.286;20.930;2023-02-13T06:21:09;101932.69;;;6.50;89.02
30724;BME280;17473;52.286;20.930;2023-02-13T06:23:36;101928.94;;;6.47;89.13
30724;BME280;17473;52.286;20.930;2023-02-13T06:26:05;101937.75;;;6.59;88.56
30724;BME280;17473;52.286;20.930;2023-02-13T06:28:33;101942.53;;;6.65;88.31
30724;BME280;17473;52.286;20.930;2023-02-13T06:31:01;101939.66;;;6.62;88.15
30724;BME280;17473;52.286;20.930;2023-02-13T06:33:28;101939.66;;;6.62;88.13
30724;BME280;17473;52.286;20.930;2023-02-13T06:35:55;101936.94;;;6.72;87.53
30724;BME280;17473;52.286;20.930;2023-02-13T06:38:23;101940.00;;;6.66;87.88
30724;BME280;17473;52.286;20.930;2023-02-13T06:40:50;101943.44;;;6.65;87.87
30724;BME280;17473;52.286;20.930;2023-02-13T06:43:18;101948.25;;;6.59;88.08
30724;BME280;17473;52.286;20.930;2023-02-13T06:45:45;101950.88;;;6.59;87.88
30724;BME280;17473;52.286;20.930;2023-02-13T06:48:13;101950.63;;;6.56;88.02
30724;BME280;17473;52.286;20.930;2023-02-13T06:50:40;101947.34;;;6.58;87.90
30724;BME280;17473;52.286;20.930;2023-02-13T06:53:07;101944.25;;;6.76;87.07
30724;BME280;17473;52.286;20.930;2023-02-13T06:55:35;101954.41;;;6.71;87.30
30724;BME280;17473;52.286;20.930;2023-02-13T06:58:05;101956.47;;;6.64;87.09
30724;BME280;17473;52.286;20.930;2023-02-13T07:00:32;101954.06;;;6.67;87.33
30724;BME280;17473;52.286;20.930;2023-02-13T07:03:04;101947.00;;;6.66;87.32
30724;BME280;17473;52.286;20.930;2023-02-13T07:05:32;101937.97;;;6.62;87.23
30724;BME280;17473;52.286;20.930;2023-02-13T07:07:59;101938.53;;;6.70;87.02
30724;BME280;17473;52.286;20.930;2023-02-13T07:10:26;101931.59;;;6.70;86.47
30724;BME280;17473;52.286;20.930;2023-02-13T07:12:53;101928.38;;;6.74;86.32
30724;BME280;17473;52.286;20.930;2023-02-13T07:15:33;101943.66;;;6.80;85.86
30724;BME280;17473;52.286;20.930;2023-02-13T07:18:01;101948.03;;;6.80;86.64
30724;BME280;17473;52.286;20.930;2023-02-13T07:20:28;101937.59;;;6.93;86.13
30724;BME280;17473;52.286;20.930;2023-02-13T07:23:04;101938.03;;;7.11;85.81
30724;BME280;17473;52.286;20.930;2023-02-13T07:25:32;101949.28;;;7.34;85.29
30724;BME280;17473;52.286;20.930;2023-02-13T07:28:04;101949.47;;;7.49;84.38
30724;BME280;17473;52.286;20.930;2023-02-13T07:30:33;101949.50;;;7.74;83.63
30724;BME280;17473;52.286;20.930;2023-02-13T07:33:03;101954.38;;;9.26;79.34
30724;BME280;17473;52.286;20.930;2023-02-13T07:35:30;101951.25;;;10.63;71.80
30724;BME280;17473;52.286;20.930;2023-02-13T07:37:58;101956.78;;;10.08;72.38
30724;BME280;17473;52.286;20.930;2023-02-13T07:40:27;101958.78;;;9.40;75.11
30724;BME280;17473;52.286;20.930;2023-02-13T07:42:55;101964.13;;;9.00;76.98
30724;BME280;17473;52.286;20.930;2023-02-13T07:45:22;101962.28;;;8.86;78.40
30724;BME280;17473;52.286;20.930;2023-02-13T07:47:49;101959.97;;;8.77;78.68
30724;BME280;17473;52.286;20.930;2023-02-13T07:50:16;101960.06;;;8.52;79.30
30724;BME280;17473;52.286;20.930;2023-02-13T07:52:43;101956.78;;;8.42;80.45
30724;BME280;17473;52.286;20.930;2023-02-13T07:55:11;101953.72;;;8.36;80.44
30724;BME280;17473;52.286;20.930;2023-02-13T07:57:38;101954.22;;;8.44;80.52
30724;BME280;17473;52.286;20.930;2023-02-13T08:00:06;101946.56;;;8.34;80.35
30724;BME280;17473;52.286;20.930;2023-02-13T08:02:33;101951.69;;;8.19;81.43
30724;BME280;17473;52.286;20.930;2023-02-13T08:05:00;101949.22;;;8.22;81.52
30724;BME280;17473;52.286;20.930;2023-02-13T08:07:27;101946.59;;;8.08;81.93
30724;BME280;17473;52.286;20.930;2023-02-13T08:09:54;101945.91;;;8.24;81.78
30724;BME280;17473;52.286;20.930;2023-02-13T08:12:40;101957.13;;;8.22;81.82
30724;BME280;17473;52.286;20.930;2023-02-13T08:15:11;101950.97;;;8.21;81.75
30724;BME280;17473;52.286;20.930;2023-02-13T08:17:38;101947.09;;;8.16;82.39
30724;BME280;17473;52.286;20.930;2023-02-13T08:20:07;101939.00;;;8.26;81.57
30724;BME280;17473;52.286;20.930;2023-02-13T08:22:38;101939.63;;;8.22;81.45
30724;BME280;17473;52.286;20.930;2023-02-13T08:25:06;101938.63;;;8.20;81.80
30724;BME280;17473;52.286;20.930;2023-02-13T08:27:34;101932.44;;;8.20;81.73
30724;BME280;17473;52.286;20.930;2023-02-13T08:30:02;101942.34;;;8.49;81.01
30724;BME280;17473;52.286;20.930;2023-02-13T08:32:29;101928.97;;;8.73;79.64
30724;BME280;17473;52.286;20.930;2023-02-13T08:35:05;101931.31;;;8.68;79.27
30724;BME280;17473;52.286;20.930;2023-02-13T08:37:32;101935.78;;;8.83;78.63
30724;BME280;17473;52.286;20.930;2023-02-13T08:39:59;101928.56;;;8.80;78.57
30724;BME280;17473;52.286;20.930;2023-02-13T08:42:26;101933.22;;;8.84;78.36
30724;BME280;17473;52.286;20.930;2023-02-13T08:44:53;101927.25;;;9.00;77.96
30724;BME280;17473;52.286;20.930;2023-02-13T08:47:20;101940.41;;;9.00;77.70
30724;BME280;17473;52.286;20.930;2023-02-13T08:49:47;101923.25;;;9.07;77.57
30724;BME280;17473;52.286;20.930;2023-02-13T08:52:15;101929.34;;;9.06;77.42
30724;BME280;17473;52.286;20.930;2023-02-13T08:54:42;101918.63;;;9.03;77.52
30724;BME280;17473;52.286;20.930;2023-02-13T08:57:09;101917.09;;;8.93;77.62
30724;BME280;17473;52.286;20.930;2023-02-13T08:59:36;101928.16;;;8.74;77.86
30724;BME280;17473;52.286;20.930;2023-02-13T09:02:03;101923.91;;;8.76;77.87
30724;BME280;17473;52.286;20.930;2023-02-13T09:04:30;101927.97;;;8.57;78.29
30724;BME280;17473;52.286;20.930;2023-02-13T09:06:57;101913.56;;;8.52;78.21
30724;BME280;17473;52.286;20.930;2023-02-13T09:09:24;101922.19;;;8.50;78.40
30724;BME280;17473;52.286;20.930;2023-02-13T09:11:51;101923.09;;;8.50;78.15
30724;BME280;17473;52.286;20.930;2023-02-13T09:14:19;101919.69;;;8.39;78.80
30724;BME280;17473;52.286;20.930;2023-02-13T09:16:46;101906.66;;;8.41;78.88
30724;BME280;17473;52.286;20.930;2023-02-13T09:19:13;101923.56;;;8.44;78.60
30724;BME280;17473;52.286;20.930;2023-02-13T09:21:40;101918.16;;;8.55;78.25
30724;BME280;17473;52.286;20.930;2023-02-13T09:24:09;101934.13;;;8.58;77.58
30724;BME280;17473;52.286;20.930;2023-02-13T09:26:36;101925.59;;;8.35;78.42
30724;BME280;17473;52.286;20.930;2023-02-13T09:29:03;101933.97;;;8.43;78.39
30724;BME280;17473;52.286;20.930;2023-02-13T09:31:30;101936.72;;;8.44;78.61
30724;BME280;17473;52.286;20.930;2023-02-13T09:33:57;101937.88;;;8.48;78.30
30724;BME280;17473;52.286;20.930;2023-02-13T09:36:24;101935.00;;;8.45;78.81
30724;BME280;17473;52.286;20.930;2023-02-13T09:38:54;101933.28;;;8.45;79.06
30724;BME280;17473;52.286;20.930;2023-02-13T09:41:29;101930.91;;;8.62;78.71
30724;BME280;17473;52.286;20.930;2023-02-13T09:44:06;101931.81;;;8.76;78.26
30724;BME280;17473;52.286;20.930;2023-02-13T09:46:39;101926.03;;;8.82;77.86
30724;BME280;17473;52.286;20.930;2023-02-13T09:49:19;101924.94;;;8.78;78.46
30724;BME280;17473;52.286;20.930;2023-02-13T09:51:55;101920.25;;;8.74;78.85
30724;BME280;17473;52.286;20.930;2023-02-13T09:54:22;101914.56;;;8.95;78.56
30724;BME280;17473;52.286;20.930;2023-02-13T09:57:23;101915.84;;;9.01;78.28
30724;BME280;17473;52.286;20.930;2023-02-13T10:00:12;101913.47;;;9.33;77.17
30724;BME280;17473;52.286;20.930;2023-02-13T10:03:06;101919.16;;;9.26;77.57
30724;BME280;17473;52.286;20.930;2023-02-13T10:06:31;101929.19;;;9.31;78.02
30724;BME280;17473;52.286;20.930;2023-02-13T10:15:55;101928.88;;;9.40;77.50
30724;BME280;17473;52.286;20.930;2023-02-13T10:18:56;101935.41;;;9.32;77.67
30724;BME280;17473;52.286;20.930;2023-02-13T10:21:27;101940.66;;;9.32;78.19
30724;BME280;17473;52.286;20.930;2023-02-13T10:24:26;101942.28;;;9.30;77.88
30724;BME280;17473;52.286;20.930;2023-02-13T10:26:56;101944.63;;;9.12;78.67
30724;BME280;17473;52.286;20.930;2023-02-13T10:29:39;101934.13;;;8.98;79.13
30724;BME280;17473;52.286;20.930;2023-02-13T10:32:50;101937.25;;;9.06;78.84
30724;BME280;17473;52.286;20.930;2023-02-13T10:35:37;101936.34;;;8.92;79.39
30724;BME280;17473;52.286;20.930;2023-02-13T10:38:21;101923.59;;;8.85;79.83
30724;BME280;17473;52.286;20.930;2023-02-13T10:41:20;101913.94;;;9.12;78.85
30724;BME280;17473;52.286;20.930;2023-02-13T10:44:05;101916.75;;;9.15;78.41
30724;BME280;17473;52.286;20.930;2023-02-13T10:47:16;101908.31;;;9.21;78.47
30724;BME280;17473;52.286;20.930;2023-02-13T10:50:29;101905.91;;;9.24;78.57
30724;BME280;17473;52.286;20.930;2023-02-13T10:56:41;101893.16;;;9.45;77.72
30724;BME280;17473;52.286;20.930;2023-02-13T11:00:17;101908.38;;;9.36;78.38
30724;BME280;17473;52.286;20.930;2023-02-13T11:02:41;101909.06;;;9.47;78.06
30724;BME280;17473;52.286;20.930;2023-02-13T11:05:25;101910.31;;;9.38;78.60
30724;BME280;17473;52.286;20.930;2023-02-13T11:07:56;101903.78;;;9.47;78.63
30724;BME280;17473;52.286;20.930;2023-02-13T11:10:26;101902.09;;;9.34;78.83
30724;BME280;17473;52.286;20.930;2023-02-13T11:12:54;101882.31;;;9.40;78.63
30724;BME280;17473;52.286;20.930;2023-02-13T11:15:27;101883.97;;;9.53;78.19
30724;BME280;17473;52.286;20.930;2023-02-13T11:18:17;101883.34;;;9.43;78.01
30724;BME280;17473;52.286;20.930;2023-02-13T11:20:46;101881.41;;;9.40;78.24
30724;BME280;17473;52.286;20.930;2023-02-13T11:26:11;101871.19;;;9.31;78.66
30724;BME280;17473;52.286;20.930;2023-02-13T11:31:29;101876.31;;;9.15;79.13
30724;BME280;17473;52.286;20.930;2023-02-13T11:33:58;101885.72;;;9.24;78.62
30724;BME280;17473;52.286;20.930;2023-02-13T11:36:32;101881.59;;;9.15;78.95
30724;BME280;17473;52.286;20.930;2023-02-13T11:39:12;101876.97;;;9.26;78.61
30724;BME280;17473;52.286;20.930;2023-02-13T11:41:46;101868.94;;;9.09;78.77
30724;BME280;17473;52.286;20.930;2023-02-13T11:44:29;101871.63;;;8.96;79.49
30724;BME280;17473;52.286;20.930;2023-02-13T11:47:00;101872.19;;;9.05;79.26
30724;BME280;17473;52.286;20.930;2023-02-13T11:49:36;101864.09;;;8.88;79.53
30724;BME280;17473;52.286;20.930;2023-02-13T11:52:26;101860.56;;;8.88;79.82
30724;BME280;17473;52.286;20.930;2023-02-13T11:55:04;101853.19;;;8.82;79.72
30724;BME280;17473;52.286;20.930;2023-02-13T11:57:36;101867.03;;;9.06;78.42
30724;BME280;17473;52.286;20.930;2023-02-13T12:00:33;101864.53;;;8.95;78.71
30724;BME280;17473;52.286;20.930;2023-02-13T12:06:10;101854.19;;;8.84;78.93
30724;BME280;17473;52.286;20.930;2023-02-13T12:08:45;101846.06;;;8.95;78.68
30724;BME280;17473;52.286;20.930;2023-02-13T12:11:35;101840.91;;;9.24;77.36
30724;BME280;17473;52.286;20.930;2023-02-13T12:14:05;101829.88;;;9.45;76.76
30724;BME280;17473;52.286;20.930;2023-02-13T12:16:47;101810.50;;;9.45;76.15
30724;BME280;17473;52.286;20.930;2023-02-13T12:19:32;101824.44;;;9.57;76.20
30724;BME280;17473;52.286;20.930;2023-02-13T12:28:48;101833.91;;;9.68;75.32
30724;BME280;17473;52.286;20.930;2023-02-13T12:35:12;101834.53;;;9.64;75.18
30724;BME280;17473;52.286;20.930;2023-02-13T12:47:00;101818.78;;;9.51;75.11
30724;BME280;17473;52.286;20.930;2023-02-13T12:52:57;101814.94;;;9.31;75.65
30724;BME280;17473;52.286;20.930;2023-02-13T13:04:29;101778.06;;;9.76;74.07
30724;BME280;17473;52.286;20.930;2023-02-13T13:15:58;101772.38;;;10.14;71.87
30724;BME280;17473;52.286;20.930;2023-02-13T13:21:48;101759.31;;;10.01;72.27
30724;BME280;17473;52.286;20.930;2023-02-13T13:27:26;101767.19;;;10.16;71.25
30724;BME280;17473;52.286;20.930;2023-02-13T13:29:58;101765.19;;;10.12;71.33
30724;BME280;17473;52.286;20.930;2023-02-13T13:32:28;101746.63;;;10.10;71.68
30724;BME280;17473;52.286;20.930;2023-02-13T13:34:57;101758.53;;;10.65;71.77
30724;BME280;17473;52.286;20.930;2023-02-13T13:37:40;101762.81;;;11.12;71.40
30724;BME280;17473;52.286;20.930;2023-02-13T13:40:42;101764.88;;;11.35;70.57
30724;BME280;17473;52.286;20.930;2023-02-13T13:43:29;101753.66;;;11.57;73.49
30724;BME280;17473;52.286;20.930;2023-02-13T13:48:54;101762.84;;;11.98;69.40
30724;BME280;17473;52.286;20.930;2023-02-13T13:51:23;101752.41;;;12.01;68.02
30724;BME280;17473;52.286;20.930;2023-02-13T13:57:05;101747.28;;;12.23;66.36
30724;BME280;17473;52.286;20.930;2023-02-13T14:05:29;101748.09;;;12.21;63.72
30724;BME280;17473;52.286;20.930;2023-02-13T14:08:00;101757.75;;;11.50;63.66
30724;BME280;17473;52.286;20.930;2023-02-13T14:20:56;101742.63;;;10.17;67.24
30724;BME280;17473;52.286;20.930;2023-02-13T14:23:47;101742.13;;;9.93;68.34
30724;BME280;17473;52.286;20.930;2023-02-13T14:26:34;101746.72;;;10.12;67.62
30724;BME280;17473;52.286;20.930;2023-02-13T14:31:41;101751.53;;;10.04;68.23
30724;BME280;17473;52.286;20.930;2023-02-13T14:36:57;101758.97;;;9.65;69.81
30724;BME280;17473;52.286;20.930;2023-02-13T14:39:31;101761.06;;;9.55;70.27
30724;BME280;17473;52.286;20.930;2023-02-13T14:42:01;101758.88;;;9.63;70.03
30724;BME280;17473;52.286;20.930;2023-02-13T14:44:43;101749.50;;;9.68;69.72
30724;BME280;17473;52.286;20.930;2023-02-13T14:47:38;101744.69;;;9.61;69.50
30724;BME280;17473;52.286;20.930;2023-02-13T14:50:31;101745.84;;;9.51;69.92
30724;BME280;17473;52.286;20.930;2023-02-13T14:53:09;101748.47;;;9.51;70.35
30724;BME280;17473;52.286;20.930;2023-02-13T14:55:44;101759.97;;;9.52;69.88
30724;BME280;17473;52.286;20.930;2023-02-13T14:58:31;101754.59;;;9.35;70.34
30724;BME280;17473;52.286;20.930;2023-02-13T15:04:08;101738.75;;;9.20;70.93
30724;BME280;17473;52.286;20.930;2023-02-13T15:06:40;101746.00;;;9.10;71.46
30724;BME280;17473;52.286;20.930;2023-02-13T15:11:48;101721.03;;;9.18;70.86
30724;BME280;17473;52.286;20.930;2023-02-13T15:14:31;101721.34;;;9.09;71.06
30724;BME280;17473;52.286;20.930;2023-02-13T15:17:22;101722.56;;;9.14;70.33
30724;BME280;17473;52.286;20.930;2023-02-13T15:19:54;101719.91;;;8.99;71.20
30724;BME280;17473;52.286;20.930;2023-02-13T15:22:40;101698.25;;;8.90;71.45
30724;BME280;17473;52.286;20.930;2023-02-13T15:25:35;101695.94;;;8.81;71.56
30724;BME280;17473;52.286;20.930;2023-02-13T15:28:14;101698.69;;;8.98;70.89
30724;BME280;17473;52.286;20.930;2023-02-13T15:33:33;101701.97;;;8.93;71.51
30724;BME280;17473;52.286;20.930;2023-02-13T15:36:21;101712.00;;;8.99;70.95
30724;BME280;17473;52.286;20.930;2023-02-13T15:38:58;101703.38;;;9.02;70.99
30724;BME280;17473;52.286;20.930;2023-02-13T15:41:41;101715.00;;;9.05;70.67
30724;BME280;17473;52.286;20.930;2023-02-13T15:44:25;101721.44;;;8.96;71.12
30724;BME280;17473;52.286;20.930;2023-02-13T15:47:07;101714.88;;;8.89;71.20
30724;BME280;17473;52.286;20.930;2023-02-13T15:49:44;101720.94;;;8.88;71.20
30724;BME280;17473;52.286;20.930;2023-02-13T15:52:33;101728.81;;;8.73;71.44
30724;BME280;17473;52.286;20.930;2023-02-13T15:55:03;101737.50;;;8.72;71.78